Time,TemperatureF,DewpointF,PressureIn,WindDirection,WindDirectionDegrees,WindSpeedMPH,WindSpeedGustMPH,Humidity,HourlyPrecipIn,Conditions,Clouds,dailyrainin,SoftwareType,DateUTC
2013-02-25 00:00:00,30.7,21.4,29.96,North,0,0.0,1.0,68,0.00,,,-99.99,WeatherLink 5.6,2013-02-25 05:00:00,
2013-02-25 00:30:00,29.8,21.9,29.96,North,0,0.0,7.0,72,0.00,,,-99.99,WeatherLink 5.6,2013-02-25 05:30:00,
2013-02-25 01:00:00,29.8,21.5,29.95,North,-999,0.0,0.0,71,0.00,,,-99.99,WeatherLink 5.6,2013-02-25 06:00:00,
2013-02-25 01:30:00,29.8,21.5,29.95,North,-999,0.0,0.0,71,0.00,,,-99.99,WeatherLink 5.6,2013-02-25 06:30:00,
2013-02-25 02:00:00,29.4,21.2,29.95,North,-999,0.0,0.0,71,0.00,,,-99.99,WeatherLink 5.6,2013-02-25 07:00:00,
2013-02-25 02:30:00,29.4,21.2,29.95,NNE,22,0.0,1.0,71,0.00,,,-99.99,WeatherLink 5.6,2013-02-25 07:30:00,
2013-02-25 03:00:00,28.8,21.2,29.94,NNE,22,0.0,1.0,73,0.00,,,-99.99,WeatherLink 5.6,2013-02-25 08:00:00,
2013-02-25 03:30:00,28.4,21.2,29.95,NNE,22,1.0,6.0,74,0.00,,,-99.99,WeatherLink 5.6,2013-02-25 08:30:00,
2013-02-25 04:00:00,28.6,21.4,29.95,SE,135,0.0,1.0,74,0.00,,,-99.99,WeatherLink 5.6,2013-02-25 09:00:00,
2013-02-25 04:30:00,27.9,21.0,29.95,ESE,112,0.0,1.0,75,0.00,,,-99.99,WeatherLink 5.6,2013-02-25 09:30:00,
2013-02-25 05:00:00,28.1,21.2,29.95,North,-999,0.0,0.0,75,0.00,,,-99.99,WeatherLink 5.6,2013-02-25 10:00:00,
2013-02-25 05:30:00,27.1,21.2,29.96,North,-999,0.0,0.0,78,0.00,,,-99.99,WeatherLink 5.6,2013-02-25 10:30:00,
2013-02-25 06:00:00,27.0,21.1,29.96,North,0,0.0,5.0,78,0.00,,,-99.99,WeatherLink 5.6,2013-02-25 11:00:00,
2013-02-25 06:30:00,27.4,21.4,29.97,North,-999,0.0,0.0,78,0.00,,,-99.99,WeatherLink 5.6,2013-02-25 11:30:00,
2013-02-25 07:00:00,26.3,21.3,29.98,North,-999,0.0,0.0,81,0.00,,,-99.99,WeatherLink 5.6,2013-02-25 12:00:00,
2013-02-25 07:30:00,26.3,21.3,29.98,NNW,337,1.0,4.0,81,0.00,,,-99.99,WeatherLink 5.6,2013-02-25 12:30:00,
2013-02-25 08:00:00,26.5,21.2,29.99,NNW,337,0.0,4.0,80,0.00,,,-99.99,WeatherLink 5.6,2013-02-25 13:00:00,
2013-02-25 08:30:00,27.2,21.8,30.00,NW,315,0.0,1.0,80,0.00,,,-99.99,WeatherLink 5.6,2013-02-25 13:30:00,
2013-02-25 09:00:00,28.2,22.8,29.99,North,-999,0.0,0.0,80,0.00,,,-99.99,WeatherLink 5.6,2013-02-25 14:00:00,
2013-02-25 09:30:00,30.2,23.9,30.00,North,-999,0.0,0.0,77,0.00,,,-99.99,WeatherLink 5.6,2013-02-25 14:30:00,
2013-02-25 10:00:00,30.6,24.2,29.99,North,-999,0.0,0.0,77,0.00,,,-99.99,WeatherLink 5.6,2013-02-25 15:00:00,
2013-02-25 10:30:00,33.1,27.0,29.98,North,-999,0.0,0.0,78,0.00,,,-99.99,WeatherLink 5.6,2013-02-25 15:30:00,
2013-02-25 11:00:00,33.8,26.7,29.99,North,-999,0.0,0.0,75,0.00,,,-99.99,WeatherLink 5.6,2013-02-25 16:00:00,
2013-02-25 11:30:00,34.8,26.7,29.98,North,-999,0.0,0.0,72,0.00,,,-99.99,WeatherLink 5.6,2013-02-25 16:30:00,
2013-02-25 12:00:00,38.6,28.9,29.95,North,-999,0.0,0.0,68,0.00,,,-99.99,WeatherLink 5.6,2013-02-25 17:00:00,
2013-02-25 12:30:00,40.2,29.4,29.94,North,-999,0.0,0.0,65,0.00,,,-99.99,WeatherLink 5.6,2013-02-25 17:30:00,
2013-02-25 13:00:00,42.8,26.4,29.93,SE,135,1.0,6.0,52,0.00,,,-99.99,WeatherLink 5.6,2013-02-25 18:00:00,
2013-02-25 13:30:00,43.8,26.3,29.90,SE,135,3.0,10.0,50,0.00,,,-99.99,WeatherLink 5.6,2013-02-25 18:30:00,
2013-02-25 14:00:00,46.4,27.8,29.89,SSE,157,4.0,14.0,48,0.00,,,-99.99,WeatherLink 5.6,2013-02-25 19:00:00,
2013-02-25 14:30:00,46.5,28.8,29.87,SE,135,4.0,11.0,50,0.00,,,-99.99,WeatherLink 5.6,2013-02-25 19:30:00,
2013-02-25 15:00:00,48.1,29.8,29.88,SE,135,4.0,12.0,49,0.00,,,-99.99,WeatherLink 5.6,2013-02-25 20:00:00,
2013-02-25 15:30:00,48.7,29.4,29.87,SSW,202,5.0,14.0,47,0.00,,,-99.99,WeatherLink 5.6,2013-02-25 20:30:00,
2013-02-25 16:00:00,48.3,29.0,29.86,SSE,157,4.0,14.0,47,0.00,,,-99.99,WeatherLink 5.6,2013-02-25 21:00:00,
2013-02-25 16:30:00,48.7,29.9,29.86,SSE,157,3.0,13.0,48,0.00,,,-99.99,WeatherLink 5.6,2013-02-25 21:30:00,
2013-02-25 17:00:00,48.0,29.7,29.85,SSE,157,3.0,11.0,49,0.00,,,-99.99,WeatherLink 5.6,2013-02-25 22:00:00,
2013-02-25 17:30:00,47.5,29.8,29.86,SSE,157,4.0,12.0,50,0.00,,,-99.99,WeatherLink 5.6,2013-02-25 22:30:00,
2013-02-25 18:00:00,47.0,29.8,29.86,SSE,157,4.0,11.0,51,0.00,,,-99.99,WeatherLink 5.6,2013-02-25 23:00:00,
2013-02-25 18:30:00,46.1,29.4,29.86,SE,135,2.0,9.0,52,0.00,,,-99.99,WeatherLink 5.6,2013-02-25 23:30:00,
2013-02-25 19:00:00,45.4,29.3,29.85,SE,135,1.0,6.0,53,0.00,,,-99.99,WeatherLink 5.6,2013-02-26 00:00:00,
2013-02-25 19:30:00,44.8,29.2,29.85,SE,135,1.0,7.0,54,0.00,,,-99.99,WeatherLink 5.6,2013-02-26 00:30:00,
2013-02-25 20:00:00,44.0,28.9,29.83,ESE,112,4.0,15.0,55,0.00,,,-99.99,WeatherLink 5.6,2013-02-26 01:00:00,
2013-02-25 20:30:00,43.3,28.6,29.83,SE,135,4.0,14.0,56,0.00,,,-99.99,WeatherLink 5.6,2013-02-26 01:30:00,
2013-02-25 21:00:00,42.2,28.5,29.82,SE,135,3.0,12.0,58,0.00,,,-99.99,WeatherLink 5.6,2013-02-26 02:00:00,
2013-02-25 21:30:00,41.6,28.3,29.83,SSE,157,7.0,16.0,59,0.00,,,-99.99,WeatherLink 5.6,2013-02-26 02:30:00,
2013-02-25 22:00:00,40.9,28.5,29.83,SSE,157,7.0,14.0,61,0.00,,,-99.99,WeatherLink 5.6,2013-02-26 03:00:00,
2013-02-25 22:30:00,40.9,28.9,29.80,SSE,157,9.0,18.0,62,0.00,,,-99.99,WeatherLink 5.6,2013-02-26 03:30:00,
2013-02-25 23:00:00,41.0,30.1,29.79,SE,135,8.0,18.0,65,0.00,,,-99.99,WeatherLink 5.6,2013-02-26 04:00:00,
2013-02-25 23:30:00,40.5,30.8,29.78,SE,135,7.0,23.0,68,0.00,,,-99.99,WeatherLink 5.6,2013-02-26 04:30:00,